Time;durP1;ratioP1;P1;durP2;ratioP2;P2;SDS_P1;SDS_P2;PMS_P1;PMS_P2;Temp;Humidity;BMP_temperature;BMP_pressure;BME280_temperature;BME280_humidity;BME280_pressure;Samples;Min_cycle;Max_cycle;Signal;HPM_P1;HPM_P2
2023/05/15 00:01:07;;;;;;;14.67;13.23;;;;;;;14.87;100.00;99715.56;5014712;28;20280;-74
2023/05/15 00:03:34;;;;;;;15.13;13.67;;;;;;;14.89;100.00;99707.31;5014832;28;20206;-73
2023/05/15 00:06:01;;;;;;;17.43;15.37;;;;;;;14.90;100.00;99714.28;5014619;28;20194;-74
2023/05/15 00:08:28;;;;;;;19.97;16.07;;;;;;;14.83;100.00;99709.00;5014576;28;20202;-75
2023/05/15 00:10:54;;;;;;;16.93;15.30;;;;;;;14.80;100.00;99693.41;5014558;28;20670;-72
2023/05/15 00:13:21;;;;;;;16.10;14.43;;;;;;;14.83;100.00;99700.97;5014696;28;20197;-73
2023/05/15 00:15:49;;;;;;;16.80;15.00;;;;;;;14.85;100.00;99696.25;5024233;28;20205;-74
2023/05/15 00:18:16;;;;;;;16.40;14.67;;;;;;;14.83;100.00;99686.81;5033696;28;20426;-74
2023/05/15 00:20:43;;;;;;;16.60;14.93;;;;;;;14.78;100.00;99687.44;5034080;28;20201;-74
2023/05/15 00:23:10;;;;;;;20.93;15.87;;;;;;;14.82;100.00;99685.97;5034005;28;20229;-76
2023/05/15 00:25:37;;;;;;;19.73;15.57;;;;;;;14.80;100.00;99682.72;5023661;28;20205;-74
2023/05/15 00:28:04;;;;;;;19.17;15.70;;;;;;;14.64;100.00;99675.22;5014061;28;20252;-76
2023/05/15 00:30:31;;;;;;;22.50;16.27;;;;;;;14.70;100.00;99693.06;5013139;28;20288;-75
2023/05/15 00:32:59;;;;;;;20.00;15.87;;;;;;;14.65;100.00;99690.22;5014352;28;20194;-74
2023/05/15 00:35:26;;;;;;;25.77;16.57;;;;;;;14.57;100.00;99697.69;5021186;28;20617;-75
2023/05/15 00:37:52;;;;;;;19.47;16.57;;;;;;;14.60;100.00;99692.75;5033718;28;20739;-75
2023/05/15 00:40:21;;;;;;;23.87;16.90;;;;;;;14.61;100.00;99682.84;5034021;28;20189;-74
2023/05/15 00:42:49;;;;;;;20.97;16.17;;;;;;;14.57;100.00;99682.47;5033465;28;20224;-74
2023/05/15 00:45:16;;;;;;;18.50;15.77;;;;;;;14.45;100.00;99660.16;5015000;28;20197;-76
2023/05/15 00:47:44;;;;;;;18.90;15.30;;;;;;;14.58;100.00;99673.41;5013818;28;20579;-75
2023/05/15 00:50:13;;;;;;;18.73;16.30;;;;;;;14.59;100.00;99659.00;5012562;28;20232;-75
2023/05/15 00:52:39;;;;;;;20.40;16.70;;;;;;;14.61;100.00;99656.94;5014011;28;20201;-73
2023/05/15 00:55:06;;;;;;;20.23;16.07;;;;;;;14.55;100.00;99641.75;5030179;28;20201;-75
2023/05/15 00:57:37;;;;;;;18.97;16.90;;;;;;;14.63;100.00;99654.84;5032270;28;20193;-75
2023/05/15 01:00:09;;;;;;;18.80;16.87;;;;;;;14.63;100.00;99657.53;5033466;28;20201;-74
2023/05/15 01:02:35;;;;;;;19.73;16.30;;;;;;;14.64;100.00;99645.81;5033308;28;20252;-73
2023/05/15 01:05:03;;;;;;;18.90;16.17;;;;;;;14.63;100.00;99638.81;5019605;28;20639;-74
2023/05/15 01:07:35;;;;;;;17.67;15.87;;;;;;;14.66;100.00;99643.72;5030694;28;20201;-75
2023/05/15 01:10:03;;;;;;;22.73;16.53;;;;;;;14.67;100.00;99634.66;5032680;28;20205;-76
2023/05/15 01:12:32;;;;;;;17.27;15.50;;;;;;;14.65;100.00;99620.72;5033568;28;20194;-76
2023/05/15 01:14:59;;;;;;;23.20;16.23;;;;;;;14.66;100.00;99619.66;5031786;28;20724;-76
2023/05/15 01:17:26;;;;;;;19.53;16.67;;;;;;;14.69;100.00;99621.09;5033048;28;20284;-76
2023/05/15 01:19:53;;;;;;;20.97;16.33;;;;;;;14.71;100.00;99616.34;5013770;28;20186;-77
2023/05/15 01:22:37;;;;;;;19.03;17.03;;;;;;;14.70;100.00;99612.84;5013164;28;20647;-75
2023/05/15 01:25:40;;;;;;;19.13;16.27;;;;;;;14.71;100.00;99611.00;5013552;28;20630;-73
2023/05/15 01:28:12;;;;;;;19.93;16.80;;;;;;;14.71;100.00;99614.47;5009926;28;20197;-73
2023/05/15 01:30:40;;;;;;;20.90;16.67;;;;;;;14.73;100.00;99600.88;5020767;28;20272;-74
2023/05/15 01:33:15;;;;;;;19.50;17.10;;;;;;;14.74;100.00;99589.16;5033122;28;20650;-74
2023/05/15 01:35:48;;;;;;;22.60;17.83;;;;;;;14.68;100.00;99584.69;5033188;28;20197;-76
2023/05/15 01:38:23;;;;;;;22.83;17.87;;;;;;;14.65;100.00;99596.66;5030474;28;20209;-75
2023/05/15 01:40:56;;;;;;;27.03;17.33;;;;;;;14.65;100.00;99609.19;5012546;28;20272;-75
2023/05/15 01:43:28;;;;;;;22.67;17.50;;;;;;;14.43;100.00;99595.41;5013205;28;20315;-75
2023/05/15 01:45:57;;;;;;;22.80;18.20;;;;;;;14.46;100.00;99604.84;5013275;28;20266;-75
2023/05/15 01:48:27;;;;;;;24.37;19.07;;;;;;;14.40;100.00;99595.84;5028554;28;20557;-75
2023/05/15 01:50:58;;;;;;;24.93;18.23;;;;;;;14.41;100.00;99586.78;5032501;28;20735;-75
2023/05/15 01:53:28;;;;;;;21.63;18.23;;;;;;;14.46;100.00;99578.91;5033016;28;20636;-73
2023/05/15 01:55:56;;;;;;;23.43;18.70;;;;;;;14.46;100.00;99586.94;5022957;28;20190;-75
2023/05/15 01:58:26;;;;;;;24.90;18.93;;;;;;;14.44;100.00;99570.31;5013070;28;20742;-75
2023/05/15 02:00:53;;;;;;;24.63;19.13;;;;;;;14.34;100.00;99547.78;5013013;28;20620;-75
2023/05/15 02:03:20;;;;;;;21.33;19.17;;;;;;;14.34;100.00;99543.25;5012430;28;20226;-75
2023/05/15 02:05:47;;;;;;;26.30;19.57;;;;;;;14.50;100.00;99548.03;5030640;28;20221;-75
2023/05/15 02:08:15;;;;;;;26.53;18.30;;;;;;;14.55;100.00;99540.19;5031966;28;20205;-75
2023/05/15 02:10:43;;;;;;;22.40;19.10;;;;;;;14.60;100.00;99548.38;5032059;28;20212;-76
2023/05/15 02:13:12;;;;;;;22.30;19.33;;;;;;;14.62;100.00;99551.63;5031168;28;20719;-75
2023/05/15 02:15:40;;;;;;;21.47;19.17;;;;;;;14.62;100.00;99582.91;5031940;28;20247;-74
2023/05/15 02:18:07;;;;;;;23.70;18.73;;;;;;;14.59;100.00;99592.16;5023575;28;20232;-73
2023/05/15 02:20:33;;;;;;;24.80;18.87;;;;;;;14.64;100.00;99597.69;5012739;28;20201;-74
2023/05/15 02:23:00;;;;;;;25.00;20.13;;;;;;;14.69;100.00;99605.03;5012514;28;20221;-73
2023/05/15 02:25:36;;;;;;;21.27;18.80;;;;;;;14.73;100.00;99600.88;5012485;28;20198;-74
2023/05/15 02:28:11;;;;;;;20.90;18.43;;;;;;;14.72;100.00;99586.72;5012457;28;20743;-74
2023/05/15 02:30:46;;;;;;;22.10;19.83;;;;;;;14.66;100.00;99549.34;5025467;28;20739;-74
2023/05/15 02:33:20;;;;;;;22.67;19.87;;;;;;;14.74;100.00;99579.28;5031943;28;20675;-73
2023/05/15 02:35:52;;;;;;;24.87;19.97;;;;;;;14.75;100.00;99610.31;5032114;28;20191;-73
2023/05/15 02:38:28;;;;;;;22.27;19.87;;;;;;;14.72;100.00;99600.09;5029358;28;20189;-74
2023/05/15 02:40:57;;;;;;;21.83;19.53;;;;;;;14.74;100.00;99589.97;5032067;28;20639;-71
2023/05/15 02:43:25;;;;;;;21.93;19.67;;;;;;;14.76;100.00;99579.06;5031703;28;20705;-76
2023/05/15 02:45:54;;;;;;;21.83;18.93;;;;;;;14.76;100.00;99571.88;5031605;28;20189;-74
2023/05/15 02:48:22;;;;;;;28.17;19.77;;;;;;;14.78;100.00;99580.47;5022476;28;20197;-74
2023/05/15 02:50:49;;;;;;;21.50;19.20;;;;;;;14.66;100.00;99557.38;5011859;28;20205;-74
2023/05/15 02:53:16;;;;;;;22.03;19.43;;;;;;;14.76;100.00;99576.41;5015897;28;20194;-73
2023/05/15 02:55:43;;;;;;;21.13;18.83;;;;;;;14.74;100.00;99567.75;5016141;28;20205;-73
2023/05/15 02:58:10;;;;;;;23.27;19.23;;;;;;;14.71;100.00;99569.03;5035604;28;20633;-74
2023/05/15 03:00:36;;;;;;;25.23;19.00;;;;;;;14.73;100.00;99568.81;5035529;28;20320;-75
2023/05/15 03:03:05;;;;;;;19.57;17.47;;;;;;;14.73;100.00;99553.59;5035574;28;20769;-75
2023/05/15 03:05:32;;;;;;;22.63;19.00;;;;;;;14.73;100.00;99576.81;5018003;28;20256;-76
2023/05/15 03:08:00;;;;;;;23.50;19.10;;;;;;;14.69;100.00;99568.44;5033280;28;20263;-75
2023/05/15 03:10:27;;;;;;;21.23;18.97;;;;;;;14.71;100.00;99582.38;5035681;28;20197;-76
2023/05/15 03:12:57;;;;;;;26.67;20.20;;;;;;;14.67;100.00;99569.69;5035776;28;20197;-77
2023/05/15 03:15:23;;;;;;;21.00;19.00;;;;;;;14.67;100.00;99581.19;5035317;28;20696;-78
2023/05/15 03:17:50;;;;;;;22.43;18.83;;;;;;;14.66;100.00;99578.75;5033982;28;20205;-77
2023/05/15 03:20:18;;;;;;;21.70;19.43;;;;;;;14.63;100.00;99569.31;5015773;28;20189;-77
2023/05/15 03:22:45;;;;;;;23.50;20.03;;;;;;;14.59;100.00;99562.75;5015474;28;20222;-76
2023/05/15 03:25:12;;;;;;;22.30;20.20;;;;;;;14.62;100.00;99559.66;5015688;28;20205;-76
2023/05/15 03:27:39;;;;;;;23.67;21.17;;;;;;;14.66;100.00;99568.88;5015782;28;20197;-75
2023/05/15 03:30:07;;;;;;;23.17;20.60;;;;;;;14.64;100.00;99573.63;5018001;28;20248;-77
2023/05/15 03:32:34;;;;;;;24.63;21.87;;;;;;;14.60;100.00;99569.75;5035479;28;20193;-76
2023/05/15 03:35:01;;;;;;;24.60;21.60;;;;;;;14.50;100.00;99569.44;5035306;28;20296;-75
2023/05/15 03:37:30;;;;;;;22.83;20.40;;;;;;;14.49;100.00;99575.81;5035393;28;20280;-73
2023/05/15 03:39:57;;;;;;;24.13;20.13;;;;;;;14.55;100.00;99568.78;5018577;28;20744;-87
2023/05/15 03:42:24;;;;;;;25.87;22.13;;;;;;;14.71;100.00;99573.56;5016448;28;20190;-81
2023/05/15 03:44:51;;;;;;;26.23;20.57;;;;;;;14.75;100.00;99572.88;5015542;28;20205;-81
2023/05/15 03:47:18;;;;;;;28.33;22.07;;;;;;;14.85;100.00;99557.16;5015179;28;20206;-75
2023/05/15 03:49:46;;;;;;;24.70;22.07;;;;;;;14.85;100.00;99557.16;5014612;28;20194;-73
2023/05/15 03:52:13;;;;;;;25.67;21.40;;;;;;;14.82;100.00;99573.66;5023780;28;20190;-77
2023/05/15 03:54:43;;;;;;;16.40;11.67;;;;;;;15.16;100.00;99574.94;5033903;28;20197;-71
2023/05/15 03:57:10;;;;;;;23.20;20.70;;;;;;;15.54;100.00;99575.53;5034451;28;20611;-80
2023/05/15 03:59:37;;;;;;;23.33;19.20;;;;;;;15.25;99.65;99520.91;5033594;28;20197;-73
2023/05/15 04:02:04;;;;;;;23.47;19.83;;;;;;;15.42;98.94;99569.28;5032936;28;20673;-79
2023/05/15 04:04:30;;;;;;;21.93;18.93;;;;;;;15.24;100.00;99572.78;5022259;28;20222;-76
2023/05/15 04:06:57;;;;;;;23.67;19.37;;;;;;;15.13;100.00;99570.03;5013142;28;20798;-75
2023/05/15 04:09:24;;;;;;;26.40;19.67;;;;;;;14.98;100.00;99575.75;5013965;28;20559;-79
2023/05/15 04:11:52;;;;;;;25.63;20.00;;;;;;;14.86;100.00;99557.97;5014723;28;20197;-79
2023/05/15 04:14:19;;;;;;;25.50;20.17;;;;;;;14.87;100.00;99559.63;5014448;28;20197;-78
2023/05/15 04:16:46;;;;;;;26.27;20.17;;;;;;;14.87;100.00;99554.28;4997218;28;20206;-78
2023/05/15 04:19:13;;;;;;;28.73;21.63;;;;;;;15.03;100.00;99559.03;5014082;28;20216;-78
2023/05/15 04:21:39;;;;;;;25.73;21.37;;;;;;;15.29;100.00;99548.84;5018169;28;20670;-76
2023/05/15 04:24:07;;;;;;;25.43;21.37;;;;;;;15.78;100.00;99558.53;5033221;28;20217;-77
2023/05/15 04:26:35;;;;;;;25.37;20.23;;;;;;;16.23;100.00;99573.09;5033527;28;20727;-78
2023/05/15 04:29:03;;;;;;;22.63;19.50;;;;;;;16.58;99.89;99573.16;5031402;28;20248;-75
2023/05/15 04:31:30;;;;;;;24.63;20.10;;;;;;;16.59;95.70;99577.47;5030382;28;20186;-77
2023/05/15 04:33:57;;;;;;;22.50;18.77;;;;;;;16.52;95.88;99592.84;5023461;28;20670;-76
2023/05/15 04:36:24;;;;;;;20.23;18.10;;;;;;;16.43;94.98;99578.16;5021830;28;20190;-75
2023/05/15 04:38:51;;;;;;;22.57;19.10;;;;;;;16.30;95.44;99573.81;5030489;28;20185;-75
2023/05/15 04:41:18;;;;;;;24.97;20.57;;;;;;;16.27;97.71;99589.53;5020506;28;20195;-76
2023/05/15 04:43:45;;;;;;;22.43;20.03;;;;;;;16.30;97.46;99591.75;5013242;28;20214;-77
2023/05/15 04:46:13;;;;;;;20.67;18.50;;;;;;;16.27;96.86;99581.47;5022684;28;20197;-78
2023/05/15 04:48:40;;;;;;;23.13;19.40;;;;;;;16.27;95.82;99582.31;5026785;28;20194;-78
2023/05/15 04:51:07;;;;;;;21.93;19.73;;;;;;;16.15;95.54;99576.09;5033026;28;20185;-78
2023/05/15 04:53:34;;;;;;;25.27;20.33;;;;;;;16.27;96.27;99589.53;5030963;28;20700;-78
2023/05/15 04:56:00;;;;;;;23.80;21.07;;;;;;;16.24;96.25;99595.34;5021287;28;20248;-78
2023/05/15 04:58:27;;;;;;;22.87;20.47;;;;;;;16.18;95.56;99606.97;5012955;28;20198;-79
2023/05/15 05:00:54;;;;;;;29.20;21.80;;;;;;;16.14;95.49;99589.72;5015596;28;20206;-80
2023/05/15 05:03:22;;;;;;;24.27;19.90;;;;;;;16.09;95.82;99581.56;5016616;28;20230;-74
2023/05/15 05:05:49;;;;;;;30.80;22.17;;;;;;;16.18;95.34;99593.59;5017944;28;20195;-79
2023/05/15 05:08:15;;;;;;;25.50;19.87;;;;;;;16.13;95.17;99588.09;5032603;28;20263;-79
2023/05/15 05:10:42;;;;;;;25.90;21.50;;;;;;;16.15;95.31;99594.03;5032460;28;20201;-78
2023/05/15 05:13:09;;;;;;;28.47;22.23;;;;;;;16.18;94.83;99597.09;5033626;28;20243;-78
2023/05/15 05:15:36;;;;;;;28.90;24.13;;;;;;;16.23;94.04;99593.69;5034301;28;20267;-80
2023/05/15 05:18:02;;;;;;;25.53;22.10;;;;;;;16.09;93.86;99568.16;5032788;28;20263;-76
2023/05/15 05:20:30;;;;;;;30.33;20.40;;;;;;;16.33;94.38;99593.97;5025238;28;20260;-72
2023/05/15 05:22:57;;;;;;;31.30;23.20;;;;;;;16.44;93.50;99606.59;5025048;28;20251;-74
2023/05/15 05:25:24;;;;;;;21.80;19.33;;;;;;;16.53;91.62;99613.28;5032672;28;20686;-72
2023/05/15 05:27:51;;;;;;;26.73;19.63;;;;;;;16.51;92.35;99604.63;5032856;28;20201;-73
2023/05/15 05:30:18;;;;;;;26.07;20.03;;;;;;;16.58;92.88;99600.00;5031775;28;20743;-70
2023/05/15 05:32:45;;;;;;;24.83;18.93;;;;;;;16.75;92.72;99599.06;5032458;28;20209;-76
2023/05/15 05:35:11;;;;;;;27.97;19.60;;;;;;;16.80;90.75;99601.03;5028768;28;20209;-72
2023/05/15 05:37:39;;;;;;;24.70;20.13;;;;;;;16.62;91.94;99601.97;5014640;28;20614;-74
2023/05/15 05:40:08;;;;;;;22.70;19.10;;;;;;;16.64;92.50;99601.72;5025184;28;20195;-75
2023/05/15 05:42:35;;;;;;;21.70;19.00;;;;;;;16.72;92.36;99604.91;5012991;28;20230;-73
2023/05/15 05:45:01;;;;;;;21.43;17.37;;;;;;;16.88;91.58;99608.75;5011970;28;20727;-73
2023/05/15 05:47:28;;;;;;;30.57;19.60;;;;;;;16.85;90.74;99606.50;5025407;28;20259;-72
2023/05/15 05:49:55;;;;;;;27.17;19.33;;;;;;;16.74;89.65;99605.47;5032063;28;20205;-73
2023/05/15 05:52:22;;;;;;;23.80;19.03;;;;;;;16.72;89.53;99604.91;5029707;28;20241;-75
2023/05/15 05:54:50;;;;;;;25.93;19.30;;;;;;;16.80;91.16;99607.22;5031087;28;20260;-74
2023/05/15 05:57:16;;;;;;;29.37;20.23;;;;;;;16.85;89.94;99609.19;5024570;28;20261;-73
2023/05/15 05:59:44;;;;;;;21.93;17.97;;;;;;;16.78;90.65;99590.53;5016617;28;20258;-72
2023/05/15 06:02:12;;;;;;;23.07;18.37;;;;;;;16.96;90.64;99611.06;5022291;28;20200;-73
2023/05/15 06:04:38;;;;;;;25.27;18.50;;;;;;;16.97;89.65;99600.09;5023825;28;20232;-73
2023/05/15 06:07:05;;;;;;;21.03;18.10;;;;;;;16.90;87.47;99603.97;5018701;28;20193;-73
2023/05/15 06:09:32;;;;;;;22.17;17.53;;;;;;;16.90;88.64;99595.91;5016642;28;20193;-74
2023/05/15 06:12:03;;;;;;;24.77;19.07;;;;;;;16.89;86.81;99611.19;5031950;28;20230;-75
2023/05/15 06:14:30;;;;;;;21.10;17.23;;;;;;;16.88;87.87;99609.56;5012392;28;20282;-72
2023/05/15 06:16:56;;;;;;;20.93;16.37;;;;;;;16.90;87.53;99628.13;5011752;28;20252;-72
2023/05/15 06:19:23;;;;;;;24.43;18.13;;;;;;;16.89;87.00;99608.50;5012011;28;20270;-75
2023/05/15 06:21:50;;;;;;;24.73;19.00;;;;;;;17.04;86.22;99602.66;5011569;28;20204;-75
2023/05/15 06:24:16;;;;;;;25.83;18.27;;;;;;;17.23;86.03;99607.66;5012043;28;20226;-74
2023/05/15 06:26:43;;;;;;;23.07;18.77;;;;;;;17.40;86.28;99602.38;5011831;28;20248;-76
2023/05/15 06:29:11;;;;;;;26.00;20.80;;;;;;;17.41;85.19;99582.56;5015345;28;20251;-72
2023/05/15 06:31:38;;;;;;;23.57;18.63;;;;;;;17.48;83.68;99594.00;5031885;28;20190;-75
2023/05/15 06:34:05;;;;;;;20.73;18.60;;;;;;;17.46;83.49;99588.84;5025594;28;20205;-73
2023/05/15 06:36:32;;;;;;;23.57;20.97;;;;;;;17.52;85.08;99589.78;5014660;28;20210;-74
2023/05/15 06:38:58;;;;;;;21.10;18.80;;;;;;;17.51;85.69;99583.56;5028809;28;20251;-73
2023/05/15 06:41:25;;;;;;;23.10;19.97;;;;;;;17.45;85.23;99589.91;5031140;28;20624;-74
2023/05/15 06:43:52;;;;;;;25.00;21.33;;;;;;;17.40;85.50;99584.41;5031026;28;20217;-74
2023/05/15 06:46:20;;;;;;;30.10;23.53;;;;;;;17.55;86.97;99589.28;5031172;28;20197;-74
2023/05/15 06:48:47;;;;;;;28.00;22.20;;;;;;;17.56;84.10;99594.41;5031349;28;20193;-73
2023/05/15 06:51:14;;;;;;;23.57;21.23;;;;;;;17.65;83.46;99602.94;5031482;28;20193;-75
2023/05/15 06:53:41;;;;;;;23.13;20.37;;;;;;;17.67;82.71;99608.88;5031568;28;20653;-75
2023/05/15 06:56:10;;;;;;;25.00;19.30;;;;;;;17.63;82.69;99599.66;5031310;28;20199;-74
2023/05/15 06:58:36;;;;;;;21.80;19.47;;;;;;;17.63;81.30;99602.34;5030822;28;20204;-74
2023/05/15 07:01:05;;;;;;;23.00;19.03;;;;;;;17.63;82.51;99595.09;5031303;28;20259;-73
2023/05/15 07:03:33;;;;;;;21.37;17.73;;;;;;;17.56;82.45;99577.50;5030308;28;20229;-72
2023/05/15 07:06:00;;;;;;;20.77;18.43;;;;;;;17.53;82.35;99586.84;5031217;28;20653;-72
2023/05/15 07:08:26;;;;;;;21.57;17.67;;;;;;;17.63;83.97;99586.22;5030872;28;20197;-72
2023/05/15 07:10:53;;;;;;;22.77;20.40;;;;;;;17.66;82.57;99591.13;5019572;28;20205;-73
2023/05/15 07:13:20;;;;;;;24.07;20.23;;;;;;;17.62;83.78;99579.22;5022484;28;20193;-76
2023/05/15 07:15:47;;;;;;;20.40;18.27;;;;;;;17.61;84.21;99594.53;5024737;28;20250;-74
2023/05/15 07:18:13;;;;;;;22.90;17.60;;;;;;;17.58;81.88;99594.19;5011639;28;20201;-76
2023/05/15 07:20:42;;;;;;;21.00;17.80;;;;;;;17.50;82.84;99592.69;5011228;28;20256;-73
2023/05/15 07:23:08;;;;;;;23.57;18.33;;;;;;;17.44;83.86;99579.41;5011117;28;20270;-73
2023/05/15 07:25:35;;;;;;;25.87;19.27;;;;;;;17.30;83.12;99586.03;5011514;28;20226;-76
2023/05/15 07:28:02;;;;;;;22.93;17.47;;;;;;;17.22;83.85;99579.19;5026444;28;20200;-73
2023/05/15 07:30:29;;;;;;;24.97;22.00;;;;;;;17.22;84.08;99571.13;5030132;28;20714;-79
2023/05/15 07:32:55;;;;;;;54.80;45.63;;;;;;;17.22;83.98;99568.44;5030863;28;20205;-74
2023/05/15 07:35:22;;;;;;;31.83;28.63;;;;;;;17.30;83.47;99569.94;5030802;28;20252;-76
2023/05/15 07:37:50;;;;;;;28.17;22.80;;;;;;;17.28;83.40;99567.50;5025718;28;20200;-80
2023/05/15 07:40:17;;;;;;;25.63;20.37;;;;;;;17.22;83.78;99548.81;5034066;28;20224;-77
2023/05/15 07:42:44;;;;;;;20.70;18.50;;;;;;;17.39;82.80;99568.53;5033391;28;20202;-81
2023/05/15 07:45:11;;;;;;;20.50;18.37;;;;;;;17.38;82.78;99556.13;5031507;28;20249;-78
2023/05/15 07:47:38;;;;;;;23.57;17.97;;;;;;;17.45;82.98;99563.06;5016984;28;20212;-83
2023/05/15 07:50:05;;;;;;;20.30;17.73;;;;;;;17.46;82.29;99559.31;5034743;28;20201;-79
2023/05/15 07:52:32;;;;;;;19.17;16.97;;;;;;;17.44;82.97;99549.88;5033547;28;20203;-77
2023/05/15 07:55:00;;;;;;;18.80;16.80;;;;;;;17.51;82.60;99572.03;5023566;28;20697;-82
2023/05/15 07:57:27;;;;;;;22.40;16.97;;;;;;;17.48;82.86;99577.88;5014329;28;20198;-72
2023/05/15 07:59:54;;;;;;;19.00;16.13;;;;;;;17.52;83.17;99569.09;5016082;28;20214;-75
2023/05/15 08:02:21;;;;;;;19.30;16.70;;;;;;;17.58;82.87;99591.50;5033999;28;20212;-80
2023/05/15 08:04:48;;;;;;;20.10;15.83;;;;;;;17.39;81.39;99580.06;5032021;28;20657;-83
2023/05/15 08:07:15;;;;;;;21.03;15.60;;;;;;;17.49;81.99;99591.06;5034453;28;20197;-80
2023/05/15 08:09:42;;;;;;;24.47;15.73;;;;;;;17.53;82.07;99618.25;5024229;28;20255;-82
2023/05/15 08:12:20;;;;;;;17.63;15.93;;;;;;;17.45;80.56;99607.88;5016862;28;20493;-78
2023/05/15 08:14:48;;;;;;;18.43;15.33;;;;;;;17.50;80.94;99624.09;5034391;28;20272;-78
2023/05/15 08:17:15;;;;;;;17.87;16.17;;;;;;;17.56;81.17;99615.91;5034794;28;20265;-78
2023/05/15 08:19:42;;;;;;;19.93;17.83;;;;;;;17.61;81.99;99609.84;5032496;28;20240;-78
2023/05/15 08:22:09;;;;;;;19.77;17.77;;;;;;;17.67;84.03;99603.50;5033789;28;20256;-79
2023/05/15 08:24:36;;;;;;;20.33;18.13;;;;;;;17.63;84.00;99603.16;5033905;28;20314;-79
2023/05/15 08:27:04;;;;;;;19.50;17.63;;;;;;;17.68;84.65;99589.03;5033937;28;20190;-81
2023/05/15 08:29:32;;;;;;;23.70;18.10;;;;;;;17.64;85.31;99579.81;5033034;28;20254;-80
2023/05/15 08:32:00;;;;;;;19.97;17.97;;;;;;;17.62;84.10;99596.16;5031868;28;20197;-81
2023/05/15 08:34:26;;;;;;;24.30;18.83;;;;;;;17.51;84.64;99588.16;5033574;28;20206;-80
2023/05/15 08:36:54;;;;;;;20.90;18.60;;;;;;;17.53;86.31;99589.53;5021510;28;20256;-80
2023/05/15 08:39:21;;;;;;;19.93;17.03;;;;;;;17.56;85.51;99580.19;5016719;28;20360;-81
2023/05/15 08:41:56;;;;;;;19.83;17.77;;;;;;;17.57;84.10;99593.38;5025001;28;20189;-78
2023/05/15 08:44:24;;;;;;;19.80;17.80;;;;;;;17.58;84.35;99578.88;5033275;28;20258;-80
2023/05/15 08:46:53;;;;;;;20.13;18.13;;;;;;;17.71;83.25;99583.97;5027826;28;20200;-81
2023/05/15 08:49:27;;;;;;;20.13;18.13;;;;;;;17.79;83.31;99586.28;5032153;28;20190;-79
2023/05/15 08:51:55;;;;;;;20.07;17.10;;;;;;;17.85;81.07;99579.94;5014717;28;20195;-81
2023/05/15 08:54:22;;;;;;;20.70;18.37;;;;;;;17.86;81.74;99580.75;5013332;28;20198;-79
2023/05/15 08:56:49;;;;;;;20.60;18.60;;;;;;;17.87;82.98;99566.25;5015350;28;20240;-78
2023/05/15 08:59:16;;;;;;;25.57;20.23;;;;;;;17.95;83.79;99563.19;5014445;28;20206;-79
2023/05/15 09:01:43;;;;;;;21.73;19.37;;;;;;;17.98;83.15;99557.34;5013119;28;20740;-78
2023/05/15 09:04:11;;;;;;;23.87;18.60;;;;;;;18.04;82.84;99561.72;5019069;28;20275;-79
2023/05/15 09:06:39;;;;;;;21.47;18.60;;;;;;;18.08;81.63;99555.63;5032254;28;20252;-79
2023/05/15 09:09:05;;;;;;;20.17;18.17;;;;;;;18.14;82.13;99551.16;5013048;28;20203;-79
2023/05/15 09:11:34;;;;;;;22.90;19.90;;;;;;;18.10;81.77;99544.66;5012888;28;20609;-77
2023/05/15 09:14:01;;;;;;;21.93;18.30;;;;;;;17.98;82.45;99536.66;5029492;28;20252;-78
2023/05/15 09:16:28;;;;;;;21.80;19.50;;;;;;;17.97;83.34;99534.22;5033118;28;20208;-80
2023/05/15 09:18:54;;;;;;;25.83;19.50;;;;;;;17.85;82.00;99542.31;5030490;28;20735;-79
2023/05/15 09:21:27;;;;;;;23.50;19.33;;;;;;;17.77;83.52;99528.47;5032529;28;20189;-77
2023/05/15 09:23:55;;;;;;;23.47;19.67;;;;;;;17.78;83.48;99520.16;5032697;28;20658;-76
2023/05/15 09:26:23;;;;;;;24.23;19.60;;;;;;;17.89;83.56;99521.16;5032839;28;20255;-79
2023/05/15 09:28:50;;;;;;;22.67;19.90;;;;;;;18.05;81.77;99541.88;5030891;28;20848;-78
2023/05/15 09:31:19;;;;;;;25.47;18.03;;;;;;;18.13;81.27;99544.16;5030641;28;20229;-80
2023/05/15 09:33:46;;;;;;;21.57;19.47;;;;;;;17.90;81.61;99533.53;5030586;28;20563;-76
2023/05/15 09:36:21;;;;;;;22.37;20.00;;;;;;;17.84;82.79;99531.84;5030156;28;20730;-80
2023/05/15 09:38:49;;;;;;;27.03;21.27;;;;;;;17.83;83.28;99532.88;5012804;28;20252;-77
2023/05/15 09:41:25;;;;;;;24.87;19.43;;;;;;;17.75;83.57;99530.56;5012403;28;20198;-80
2023/05/15 09:43:53;;;;;;;22.37;20.03;;;;;;;17.64;83.29;99521.50;5012609;28;20215;-76
2023/05/15 09:46:20;;;;;;;22.13;19.47;;;;;;;17.61;82.65;99519.31;5011943;28;20247;-77
2023/05/15 09:48:46;;;;;;;22.33;20.00;;;;;;;17.67;83.31;99518.34;5027376;28;20228;-80
2023/05/15 09:51:17;;;;;;;25.70;20.57;;;;;;;17.74;83.46;99515.50;5020866;28;20209;-78
2023/05/15 09:53:50;;;;;;;24.57;20.87;;;;;;;17.87;83.36;99512.50;5023905;28;20276;-80
2023/05/15 09:56:17;;;;;;;24.03;21.33;;;;;;;17.90;82.40;99503.97;5016896;28;20190;-78
2023/05/15 09:58:53;;;;;;;24.87;19.60;;;;;;;17.99;81.17;99497.97;5031879;28;20251;-78
2023/05/15 10:01:19;;;;;;;22.77;20.37;;;;;;;18.13;81.32;99491.19;5031311;28;20635;-78
2023/05/15 10:03:57;;;;;;;21.27;19.03;;;;;;;18.34;80.18;99501.22;5028537;28;20194;-79
2023/05/15 10:06:23;;;;;;;31.30;20.73;;;;;;;18.42;79.11;99500.03;5026086;28;20206;-80
2023/05/15 10:08:54;;;;;;;26.40;21.40;;;;;;;18.43;79.87;99496.28;5031757;28;20263;-80
2023/05/15 10:11:22;;;;;;;30.23;21.97;;;;;;;18.47;80.47;99497.41;5027787;28;20194;-78
2023/05/15 10:13:49;;;;;;;31.20;20.77;;;;;;;18.49;79.89;99489.88;5031988;28;20216;-77
2023/05/15 10:16:20;;;;;;;22.57;20.50;;;;;;;18.63;79.10;99491.19;5031744;28;20673;-80
2023/05/15 10:18:47;;;;;;;23.90;21.37;;;;;;;18.72;77.75;99484.31;5031631;28;20187;-80
2023/05/15 10:21:17;;;;;;;29.07;21.90;;;;;;;18.81;78.90;99480.13;5031828;28;20198;-76
2023/05/15 10:23:45;;;;;;;59.20;23.10;;;;;;;18.73;78.67;99476.00;5030161;28;20255;-83
2023/05/15 10:26:19;;;;;;;20.53;16.50;;;;;;;18.81;80.88;99466.66;5031791;28;20316;-77
2023/05/15 10:28:47;;;;;;;21.33;17.57;;;;;;;19.32;78.99;99479.72;5031374;28;20201;-77
2023/05/15 10:31:14;;;;;;;39.17;21.47;;;;;;;19.63;74.12;99484.34;5028369;28;20220;-74
2023/05/15 10:33:42;;;;;;;24.37;19.30;;;;;;;19.81;74.45;99492.09;5013901;28;20202;-77
2023/05/15 10:36:10;;;;;;;19.77;17.37;;;;;;;20.07;75.49;99489.34;5011528;28;20209;-80
2023/05/15 10:38:38;;;;;;;27.80;20.43;;;;;;;20.21;71.63;99473.56;5011988;28;20252;-80
2023/05/15 10:41:07;;;;;;;23.50;18.47;;;;;;;20.41;70.75;99490.72;5010447;28;20211;-78
2023/05/15 10:43:35;;;;;;;32.10;19.83;;;;;;;20.47;70.41;99481.56;5011687;28;20669;-80
2023/05/15 10:46:04;;;;;;;46.23;21.60;;;;;;;20.49;70.16;99470.53;5011720;28;20222;-76
2023/05/15 10:48:32;;;;;;;20.73;18.63;;;;;;;20.58;70.24;99482.44;5011540;28;20232;-80
2023/05/15 10:51:00;;;;;;;26.77;19.63;;;;;;;20.63;70.18;99485.19;5011955;28;20208;-76
2023/05/15 10:53:27;;;;;;;23.23;19.07;;;;;;;20.44;69.15;99490.22;5020632;28;20221;-78
2023/05/15 10:55:54;;;;;;;22.97;18.50;;;;;;;20.46;68.70;99479.97;5030804;28;20268;-79
2023/05/15 10:58:23;;;;;;;32.57;18.33;;;;;;;20.48;69.29;99453.53;5027496;28;20206;-77
2023/05/15 11:00:51;;;;;;;21.93;17.13;;;;;;;20.54;67.57;99463.28;5030295;28;20194;-76
2023/05/15 11:03:36;;;;;;;52.93;18.40;;;;;;;20.41;69.07;99466.44;5020269;28;20253;-76
2023/05/15 11:06:10;;;;;;;19.20;17.23;;;;;;;20.40;69.04;99469.41;5021395;28;20777;-76
2023/05/15 11:08:40;;;;;;;22.97;19.17;;;;;;;20.58;68.07;99473.56;5019609;28;20194;-79
2023/05/15 11:11:07;;;;;;;48.73;19.07;;;;;;;20.47;69.19;99462.69;5021073;28;20197;-80
2023/05/15 11:14:10;;;;;;;26.53;17.50;;;;;;;20.36;68.97;99470.97;5022171;28;20201;-78
2023/05/15 11:17:02;;;;;;;22.40;17.57;;;;;;;20.06;70.24;99460.75;5025831;28;20200;-79
2023/05/15 11:19:34;;;;;;;66.00;18.60;;;;;;;19.84;70.48;99457.34;5020395;28;20201;-79